createdAt,value
2022-10-09T00:00:31.927Z,8.06
2022-10-09T00:02:59.308Z,7.84
2022-10-09T00:05:26.964Z,7.61
2022-10-09T00:07:54.453Z,7.72
2022-10-09T00:10:23.271Z,7.89
2022-10-09T00:12:51.366Z,8.13
2022-10-09T00:15:19.134Z,8.05
2022-10-09T00:17:47.817Z,8.03
2022-10-09T00:20:15.402Z,8.30
2022-10-09T00:22:43.440Z,8.19
2022-10-09T00:25:11.185Z,8.25
2022-10-09T00:27:38.734Z,8.23
2022-10-09T00:30:07.442Z,8.23
2022-10-09T00:32:34.776Z,8.23
2022-10-09T00:35:03.499Z,8.20
2022-10-09T00:37:30.978Z,8.12
2022-10-09T00:39:58.601Z,8.11
2022-10-09T00:42:26.326Z,8.13
2022-10-09T00:44:57.648Z,8.18
2022-10-09T00:47:29.484Z,8.02
2022-10-09T00:50:00.583Z,8.26
2022-10-09T00:52:29.345Z,8.07
2022-10-09T00:54:57.122Z,8.21
2022-10-09T00:57:24.525Z,8.19
2022-10-09T00:59:52.073Z,8.06
2022-10-09T01:02:19.545Z,8.01
2022-10-09T01:04:46.969Z,7.88
2022-10-09T01:07:27.223Z,7.98
2022-10-09T01:09:58.776Z,8.04
2022-10-09T01:12:33.485Z,8.20
2022-10-09T01:15:10.718Z,8.04
2022-10-09T01:17:42.884Z,7.99
2022-10-09T01:20:30.973Z,7.96
2022-10-09T01:23:07.897Z,8.07
2022-10-09T01:25:40.255Z,8.01
2022-10-09T01:28:10.615Z,8.22
2022-10-09T01:30:38.299Z,8.26
2022-10-09T01:33:05.941Z,8.15
2022-10-09T01:35:33.385Z,8.15
2022-10-09T01:38:02.388Z,7.93
2022-10-09T01:40:31.253Z,7.70
2022-10-09T01:42:59.232Z,7.84
2022-10-09T01:45:38.197Z,7.91
2022-10-09T01:48:06.006Z,8.03
2022-10-09T01:50:35.695Z,7.84
2022-10-09T01:53:05.358Z,7.78
2022-10-09T01:55:39.789Z,7.58
2022-10-09T01:58:12.263Z,7.48
2022-10-09T02:00:44.210Z,7.68
2022-10-09T02:06:42.937Z,7.77
2022-10-09T02:09:13.713Z,7.78
2022-10-09T02:11:43.065Z,7.97
2022-10-09T02:14:10.805Z,7.93
2022-10-09T02:16:40.754Z,8.06
2022-10-09T02:19:11.806Z,8.11
2022-10-09T02:21:45.086Z,7.90
2022-10-09T02:24:16.295Z,7.66
2022-10-09T02:26:43.669Z,7.70
2022-10-09T02:29:11.461Z,7.49
2022-10-09T02:31:41.910Z,7.64
2022-10-09T02:34:10.693Z,7.69
2022-10-09T02:36:39.621Z,7.59
2022-10-09T02:39:07.604Z,7.56
2022-10-09T02:41:35.353Z,7.40
2022-10-09T02:44:03.108Z,7.33
2022-10-09T02:46:30.711Z,7.00
2022-10-09T02:48:59.566Z,6.99
2022-10-09T02:51:27.099Z,6.85
2022-10-09T02:53:54.824Z,6.78
2022-10-09T02:56:22.258Z,6.68
2022-10-09T02:58:49.684Z,6.49
2022-10-09T03:01:17.092Z,6.33
2022-10-09T03:03:44.777Z,6.14
2022-10-09T03:06:15.303Z,5.75
2022-10-09T03:08:44.465Z,5.86
2022-10-09T03:11:13.965Z,5.62
2022-10-09T03:13:41.706Z,5.57
2022-10-09T03:16:11.046Z,5.67
2022-10-09T03:18:39.025Z,5.45
2022-10-09T03:21:07.461Z,5.56
2022-10-09T03:23:36.562Z,5.67
2022-10-09T03:26:06.195Z,5.80
2022-10-09T03:28:36.325Z,5.94
2022-10-09T03:31:04.034Z,6.04
2022-10-09T03:33:32.585Z,6.21
2022-10-09T03:36:00.144Z,6.60
2022-10-09T03:38:27.485Z,6.72
2022-10-09T03:40:56.157Z,6.91
2022-10-09T03:43:23.493Z,7.02
2022-10-09T03:45:50.890Z,7.00
2022-10-09T03:48:18.337Z,6.96
2022-10-09T03:50:45.689Z,6.99
2022-10-09T03:53:13.482Z,6.96
2022-10-09T03:55:41.076Z,7.13
2022-10-09T03:58:10.233Z,7.37
2022-10-09T04:00:38.086Z,7.38
2022-10-09T04:03:05.552Z,7.56
2022-10-09T04:05:34.222Z,7.47
2022-10-09T04:08:01.693Z,7.44
2022-10-09T04:10:29.089Z,7.39
2022-10-09T04:12:56.525Z,7.43
2022-10-09T04:15:25.205Z,7.48
2022-10-09T04:17:52.549Z,7.47
2022-10-09T04:20:20.952Z,7.41
2022-10-09T04:22:48.560Z,7.39
2022-10-09T04:25:16.414Z,7.32
2022-10-09T04:28:15.827Z,7.10
2022-10-09T04:30:44.518Z,6.96
2022-10-09T04:33:13.071Z,6.91
2022-10-09T04:35:42.558Z,6.66
2022-10-09T04:38:09.879Z,6.60
2022-10-09T04:40:37.239Z,6.29
2022-10-09T04:43:04.894Z,6.31
2022-10-09T04:45:32.323Z,6.35
2022-10-09T04:48:01.005Z,6.24
2022-10-09T04:50:28.409Z,6.14
2022-10-09T04:52:58.583Z,6.00
2022-10-09T04:55:26.380Z,5.90
2022-10-09T04:57:53.730Z,5.81
2022-10-09T05:00:21.114Z,5.68
2022-10-09T05:02:48.729Z,5.67
2022-10-09T05:05:17.645Z,5.59
2022-10-09T05:07:44.972Z,5.48
2022-10-09T05:10:12.341Z,5.49
2022-10-09T05:12:39.862Z,5.57
2022-10-09T05:15:08.216Z,5.69
2022-10-09T05:17:36.302Z,5.66
2022-10-09T05:20:04.390Z,5.51
2022-10-09T05:22:35.097Z,5.48
2022-10-09T05:25:05.143Z,5.46
2022-10-09T05:27:35.085Z,5.23
2022-10-09T05:30:06.760Z,5.26
2022-10-09T05:32:45.691Z,5.33
2022-10-09T05:35:20.438Z,5.33
2022-10-09T05:38:03.034Z,5.30
2022-10-09T05:40:39.051Z,5.24
2022-10-09T05:43:42.883Z,5.14
2022-10-09T05:46:14.498Z,5.07
2022-10-09T05:48:47.841Z,5.09
2022-10-09T05:51:26.493Z,4.80
2022-10-09T05:54:01.766Z,4.92
2022-10-09T05:56:35.386Z,4.93
2022-10-09T05:59:22.147Z,5.15
2022-10-09T06:07:54.829Z,5.45
2022-10-09T06:10:33.084Z,5.48
2022-10-09T06:13:06.278Z,5.54
2022-10-09T06:15:53.719Z,5.71
2022-10-09T06:18:40.307Z,5.68
2022-10-09T06:21:17.618Z,5.97
2022-10-09T06:24:04.044Z,6.12
2022-10-09T06:27:13.799Z,6.35
2022-10-09T06:29:49.977Z,6.53
2022-10-09T06:32:36.023Z,6.74
2022-10-09T06:35:10.899Z,6.99
2022-10-09T06:37:49.571Z,7.18
2022-10-09T06:40:22.988Z,7.78
2022-10-09T06:43:27.492Z,8.54
2022-10-09T06:46:00.571Z,8.87
2022-10-09T06:48:34.294Z,9.31
2022-10-09T06:51:07.138Z,9.67
2022-10-09T06:53:37.762Z,10.31
2022-10-09T06:56:10.196Z,10.86
2022-10-09T06:58:43.539Z,11.04
2022-10-09T07:01:20.321Z,10.90
2022-10-09T07:03:55.934Z,10.96
2022-10-09T07:06:31.233Z,11.25
2022-10-09T07:09:09.154Z,11.65
2022-10-09T07:11:44.822Z,11.87
2022-10-09T07:14:21.855Z,11.89
2022-10-09T07:16:58.747Z,12.08
2022-10-09T07:19:34.690Z,12.66
2022-10-09T07:22:12.195Z,13.06
2022-10-09T07:24:44.023Z,12.50
2022-10-09T07:27:18.125Z,12.94
2022-10-09T07:29:55.766Z,13.28
2022-10-09T07:32:27.211Z,12.85
2022-10-09T07:34:57.741Z,13.19
2022-10-09T07:37:27.434Z,13.22
2022-10-09T07:39:56.751Z,12.97
2022-10-09T07:42:28.399Z,12.57
2022-10-09T07:44:58.290Z,12.66
2022-10-09T07:47:26.700Z,12.51
2022-10-09T07:49:55.685Z,12.35
2022-10-09T07:52:24.612Z,12.37
2022-10-09T07:54:53.546Z,12.49
2022-10-09T07:57:22.521Z,12.08
2022-10-09T07:59:51.709Z,12.09
2022-10-09T08:02:20.806Z,12.19
2022-10-09T08:04:49.340Z,12.25
2022-10-09T08:07:20.590Z,12.24
2022-10-09T08:09:48.873Z,11.79
2022-10-09T08:12:17.400Z,11.95
2022-10-09T08:14:47.017Z,11.97
2022-10-09T08:17:15.213Z,11.69
2022-10-09T08:19:46.044Z,12.03
2022-10-09T08:22:15.164Z,12.25
2022-10-09T08:24:44.221Z,12.50
2022-10-09T08:27:12.654Z,12.73
2022-10-09T08:29:40.725Z,12.57
2022-10-09T08:32:08.246Z,12.73
2022-10-09T08:34:35.742Z,12.54
2022-10-09T08:37:04.535Z,12.73
2022-10-09T08:39:32.747Z,12.87
2022-10-09T08:42:03.445Z,12.77
2022-10-09T08:44:34.738Z,13.07
2022-10-09T08:47:06.250Z,13.34
2022-10-09T08:49:39.493Z,13.61
2022-10-09T08:52:19.236Z,13.61
2022-10-09T08:54:46.884Z,13.77
2022-10-09T08:57:17.241Z,13.64
2022-10-09T08:59:48.376Z,14.01
2022-10-09T09:02:31.621Z,14.26
2022-10-09T09:05:26.700Z,13.87
2022-10-09T09:08:03.058Z,14.25
2022-10-09T09:10:42.231Z,14.27
2022-10-09T09:13:23.656Z,14.30
2022-10-09T09:15:58.829Z,14.79
2022-10-09T09:18:42.525Z,14.99
2022-10-09T09:21:19.078Z,14.88
2022-10-09T09:23:50.483Z,15.06
2022-10-09T09:26:24.826Z,15.15
2022-10-09T09:28:59.822Z,15.38
2022-10-09T09:31:32.052Z,15.03
2022-10-09T09:34:06.987Z,15.33
2022-10-09T09:36:43.874Z,15.55
2022-10-09T09:42:15.788Z,15.93
2022-10-09T09:44:50.160Z,16.07
2022-10-09T09:47:24.861Z,15.99
2022-10-09T09:49:58.236Z,16.02
2022-10-09T09:52:28.921Z,15.87
2022-10-09T09:55:01.725Z,15.79
2022-10-09T09:57:42.024Z,15.86
2022-10-09T10:00:20.855Z,16.20
2022-10-09T10:02:50.100Z,16.56
2022-10-09T10:05:26.479Z,16.85
2022-10-09T10:07:58.084Z,17.11
2022-10-09T10:10:32.332Z,16.99
2022-10-09T10:13:08.374Z,17.08
2022-10-09T10:15:38.134Z,17.38
2022-10-09T10:18:08.581Z,17.29
2022-10-09T10:20:48.324Z,17.04
2022-10-09T10:23:39.256Z,16.96
2022-10-09T10:26:22.159Z,17.42
2022-10-09T10:28:58.976Z,17.40
2022-10-09T10:31:40.276Z,17.29
2022-10-09T10:34:18.059Z,17.53
2022-10-09T10:36:49.367Z,17.57
2022-10-09T10:42:35.532Z,17.64
2022-10-09T10:45:12.157Z,17.43
2022-10-09T10:47:45.573Z,17.76
2022-10-09T10:50:20.478Z,17.81
2022-10-09T10:53:03.725Z,17.83
2022-10-09T10:55:40.598Z,17.89
2022-10-09T10:58:26.686Z,17.96
2022-10-09T11:01:08.068Z,18.14
2022-10-09T11:04:07.525Z,17.65
2022-10-09T11:06:42.058Z,17.78
2022-10-09T11:09:15.493Z,18.02
2022-10-09T11:11:47.488Z,17.69
2022-10-09T11:14:31.131Z,17.77
2022-10-09T11:17:07.222Z,17.76
2022-10-09T11:19:54.539Z,17.75
2022-10-09T11:22:36.188Z,17.80
2022-10-09T11:25:17.273Z,17.74
2022-10-09T11:27:49.135Z,18.10
2022-10-09T11:30:19.898Z,18.03
2022-10-09T11:32:55.626Z,18.01
2022-10-09T11:35:24.244Z,18.06
2022-10-09T11:37:59.015Z,18.26
2022-10-09T11:40:33.559Z,18.25
2022-10-09T11:43:05.516Z,18.59
2022-10-09T11:45:38.503Z,18.47
2022-10-09T11:48:10.191Z,18.61
2022-10-09T11:50:47.589Z,18.63
2022-10-09T11:53:17.689Z,18.47
2022-10-09T11:55:48.011Z,18.46
2022-10-09T11:58:23.524Z,18.67
2022-10-09T12:00:54.890Z,18.46
2022-10-09T12:03:30.091Z,18.66
2022-10-09T12:06:06.105Z,18.42
2022-10-09T12:08:34.196Z,18.24
2022-10-09T12:11:15.267Z,18.22
2022-10-09T12:13:49.535Z,18.33
2022-10-09T12:16:39.505Z,18.43
2022-10-09T12:19:19.799Z,18.37
2022-10-09T12:21:51.877Z,18.26
2022-10-09T12:24:22.608Z,18.52
2022-10-09T12:26:51.910Z,18.52
2022-10-09T12:29:24.451Z,18.29
2022-10-09T12:31:55.730Z,18.30
2022-10-09T12:34:25.817Z,18.00
2022-10-09T12:37:04.403Z,18.18
2022-10-09T12:39:33.729Z,18.03
2022-10-09T12:42:01.357Z,18.10
2022-10-09T12:44:31.841Z,18.50
2022-10-09T12:47:03.731Z,18.30
2022-10-09T12:49:31.727Z,18.25
2022-10-09T12:52:00.407Z,17.99
2022-10-09T12:54:29.847Z,18.04
2022-10-09T12:56:58.358Z,17.77
2022-10-09T12:59:26.760Z,17.50
2022-10-09T13:01:58.047Z,17.82
2022-10-09T13:04:31.098Z,18.27
2022-10-09T13:06:59.827Z,17.93
2022-10-09T13:09:30.279Z,18.15
2022-10-09T13:12:01.018Z,18.15
2022-10-09T13:14:35.431Z,18.37
2022-10-09T13:17:03.473Z,18.38
2022-10-09T13:19:35.297Z,18.22
2022-10-09T13:22:21.330Z,18.53
2022-10-09T13:24:53.099Z,18.62
2022-10-09T13:27:21.837Z,18.61
2022-10-09T13:29:49.927Z,18.82
2022-10-09T13:32:19.046Z,19.05
2022-10-09T13:34:48.590Z,18.96
2022-10-09T13:37:20.104Z,18.82
2022-10-09T13:39:48.015Z,18.78
2022-10-09T13:42:16.756Z,18.84
2022-10-09T13:44:44.315Z,18.90
2022-10-09T13:47:12.156Z,19.23
2022-10-09T13:49:42.814Z,19.30
2022-10-09T13:52:12.267Z,19.33
2022-10-09T13:54:40.327Z,19.35
2022-10-09T13:57:08.099Z,19.06
2022-10-09T13:59:36.202Z,19.10
2022-10-09T14:02:03.667Z,19.31
2022-10-09T14:04:31.400Z,19.36
2022-10-09T14:06:58.950Z,19.63
2022-10-09T14:09:40.135Z,19.47
2022-10-09T14:12:07.670Z,19.26
2022-10-09T14:14:35.226Z,19.25
2022-10-09T14:17:02.613Z,19.25
2022-10-09T14:19:30.013Z,19.07
2022-10-09T14:21:58.268Z,19.17
2022-10-09T14:24:26.458Z,18.68
2022-10-09T14:26:55.231Z,18.53
2022-10-09T14:29:22.714Z,18.06
2022-10-09T14:31:50.501Z,17.63
2022-10-09T14:34:18.016Z,17.71
2022-10-09T14:36:45.417Z,17.37
2022-10-09T14:39:12.828Z,16.77
2022-10-09T14:41:40.250Z,16.65
2022-10-09T14:44:10.900Z,16.42
2022-10-09T14:46:39.232Z,16.28
2022-10-09T14:49:08.058Z,16.39
2022-10-09T14:51:37.091Z,16.16
2022-10-09T14:54:05.627Z,16.09
2022-10-09T14:56:33.185Z,16.02
2022-10-09T14:59:01.260Z,16.00
2022-10-09T15:01:30.352Z,15.96
2022-10-09T15:03:57.839Z,15.88
2022-10-09T15:06:25.351Z,15.93
2022-10-09T15:08:55.639Z,15.87
2022-10-09T15:11:23.319Z,15.77
2022-10-09T15:13:50.874Z,15.61
2022-10-09T15:16:19.450Z,15.64
2022-10-09T15:18:50.603Z,15.72
2022-10-09T15:21:19.373Z,15.54
2022-10-09T15:23:47.301Z,15.61
2022-10-09T15:26:15.099Z,15.59
2022-10-09T15:28:43.952Z,15.50
2022-10-09T15:31:19.786Z,15.46
2022-10-09T15:33:48.843Z,15.46
2022-10-09T15:36:16.318Z,15.33
2022-10-09T15:38:43.693Z,15.18
2022-10-09T15:41:20.882Z,15.29
2022-10-09T15:43:48.607Z,15.33
2022-10-09T15:46:16.017Z,15.18
2022-10-09T15:48:43.592Z,14.96
2022-10-09T15:51:13.951Z,14.98
2022-10-09T15:53:42.595Z,14.83
2022-10-09T15:56:13.788Z,14.92
2022-10-09T15:58:42.129Z,14.73
2022-10-09T16:01:14.479Z,14.75
2022-10-09T16:03:43.683Z,14.56
2022-10-09T16:06:15.866Z,14.47
2022-10-09T16:08:44.150Z,14.49
2022-10-09T16:11:13.895Z,14.49
2022-10-09T16:13:46.876Z,14.27
2022-10-09T16:16:18.895Z,14.12
2022-10-09T16:18:48.184Z,14.03
2022-10-09T16:21:18.835Z,13.91
2022-10-09T16:23:47.418Z,13.86
2022-10-09T16:26:18.970Z,13.63
2022-10-09T16:28:47.158Z,13.67
2022-10-09T16:31:19.119Z,13.66
2022-10-09T16:36:15.282Z,13.47
2022-10-09T16:38:44.150Z,13.31
2022-10-09T16:41:14.658Z,13.16
2022-10-09T16:43:42.142Z,12.96
2022-10-09T16:46:11.735Z,12.69
2022-10-09T16:48:39.280Z,12.55
2022-10-09T16:51:11.159Z,12.30
2022-10-09T16:53:38.664Z,12.08
2022-10-09T16:56:12.376Z,11.88
2022-10-09T16:58:40.713Z,11.83
2022-10-09T17:01:10.513Z,11.66
2022-10-09T17:03:40.307Z,11.49
2022-10-09T17:06:09.407Z,11.30
2022-10-09T17:08:37.432Z,11.18
2022-10-09T17:11:07.838Z,11.16
2022-10-09T17:13:36.958Z,11.00
2022-10-09T17:16:06.394Z,10.75
2022-10-09T17:18:35.528Z,10.53
2022-10-09T17:21:03.553Z,10.34
2022-10-09T17:23:31.089Z,10.17
2022-10-09T17:25:58.576Z,10.07
2022-10-09T17:28:26.104Z,9.67
2022-10-09T17:30:54.934Z,9.50
2022-10-09T17:33:22.431Z,9.55
2022-10-09T17:35:49.886Z,9.71
2022-10-09T17:38:17.458Z,9.72
2022-10-09T17:40:45.288Z,9.56
2022-10-09T17:43:13.147Z,9.60
2022-10-09T17:45:41.086Z,9.76
2022-10-09T17:48:10.642Z,9.71
2022-10-09T17:50:38.070Z,9.80
2022-10-09T17:53:07.074Z,9.74
2022-10-09T17:55:40.354Z,9.87
2022-10-09T17:58:08.231Z,9.86
2022-10-09T18:00:37.741Z,9.86
2022-10-09T18:03:05.295Z,9.79
2022-10-09T18:05:38.647Z,9.75
2022-10-09T18:08:08.106Z,9.67
2022-10-09T18:10:39.516Z,9.69
2022-10-09T18:13:08.170Z,9.71
2022-10-09T18:15:37.648Z,9.66
2022-10-09T18:18:05.355Z,9.65
2022-10-09T18:20:37.335Z,9.59
2022-10-09T18:23:05.538Z,9.60
2022-10-09T18:25:35.590Z,9.56
2022-10-09T18:28:03.651Z,9.55
2022-10-09T18:30:32.041Z,9.46
2022-10-09T18:32:59.525Z,9.49
2022-10-09T18:35:27.066Z,9.44
2022-10-09T18:37:56.179Z,9.13
2022-10-09T18:40:24.822Z,9.34
2022-10-09T18:42:53.167Z,9.39
2022-10-09T18:45:20.810Z,9.32
2022-10-09T18:47:49.540Z,9.23
2022-10-09T18:50:17.391Z,8.97
2022-10-09T18:52:45.325Z,8.92
2022-10-09T18:55:16.149Z,8.96
2022-10-09T18:57:44.341Z,8.97
2022-10-09T19:00:16.217Z,8.90
2022-10-09T19:02:44.070Z,8.89
2022-10-09T19:05:12.564Z,8.78
2022-10-09T19:07:40.418Z,8.81
2022-10-09T19:10:09.400Z,8.88
2022-10-09T19:12:39.753Z,8.95
2022-10-09T19:15:12.111Z,8.91
2022-10-09T19:17:40.429Z,8.87
2022-10-09T19:20:09.974Z,8.89
2022-10-09T19:22:39.191Z,8.88
2022-10-09T19:25:07.297Z,8.99
2022-10-09T19:27:34.815Z,9.00
2022-10-09T19:30:04.120Z,9.15
2022-10-09T19:32:31.827Z,9.11
2022-10-09T19:34:59.867Z,9.10
2022-10-09T19:37:29.688Z,9.24
2022-10-09T19:39:57.739Z,9.24
2022-10-09T19:42:25.529Z,9.28
2022-10-09T19:44:53.170Z,9.22
2022-10-09T19:47:23.818Z,9.25
2022-10-09T19:49:51.457Z,9.32
2022-10-09T19:52:20.028Z,9.32
2022-10-09T19:54:47.546Z,9.29
2022-10-09T19:57:14.915Z,9.05
2022-10-09T19:59:42.430Z,9.09
2022-10-09T20:02:09.872Z,8.89
2022-10-09T20:04:53.691Z,8.63
2022-10-09T20:07:21.156Z,8.62
2022-10-09T20:09:48.662Z,8.62
2022-10-09T20:12:17.868Z,8.44
2022-10-09T20:14:45.580Z,8.30
2022-10-09T20:17:13.124Z,8.21
2022-10-09T20:19:45.416Z,8.13
2022-10-09T20:22:14.563Z,8.06
2022-10-09T20:24:42.047Z,7.97
2022-10-09T20:27:09.504Z,8.02
2022-10-09T20:29:37.101Z,8.00
2022-10-09T20:32:04.697Z,7.80
2022-10-09T20:34:32.115Z,7.96
2022-10-09T20:36:59.576Z,7.92
2022-10-09T20:39:28.490Z,7.82
2022-10-09T20:41:56.107Z,7.82
2022-10-09T20:44:23.713Z,7.89
2022-10-09T20:46:53.082Z,7.99
2022-10-09T20:49:20.606Z,8.09
2022-10-09T20:51:49.499Z,7.97
2022-10-09T20:54:18.793Z,8.08
2022-10-09T20:56:47.936Z,8.14
2022-10-09T20:59:15.582Z,8.00
2022-10-09T21:01:43.785Z,8.04
2022-10-09T21:04:12.259Z,8.02
2022-10-09T21:06:40.611Z,7.81
2022-10-09T21:09:09.967Z,7.89
2022-10-09T21:11:38.879Z,7.99
2022-10-09T21:14:08.358Z,8.07
2022-10-09T21:16:36.692Z,8.09
2022-10-09T21:19:05.819Z,8.14
2022-10-09T21:21:34.913Z,7.98
2022-10-09T21:24:03.100Z,7.89
2022-10-09T21:26:35.548Z,7.92
2022-10-09T21:29:03.939Z,7.89
2022-10-09T21:31:33.786Z,7.75
2022-10-09T21:34:01.932Z,7.82
2022-10-09T21:36:36.957Z,7.72
2022-10-09T21:39:05.911Z,7.76
2022-10-09T21:41:38.637Z,7.75
2022-10-09T21:44:07.247Z,7.62
2022-10-09T21:46:36.473Z,7.35
2022-10-09T21:49:07.634Z,7.47
2022-10-09T21:51:35.880Z,7.50
2022-10-09T21:54:03.590Z,7.49
2022-10-09T21:56:31.054Z,7.54
2022-10-09T21:58:58.496Z,7.55
2022-10-09T22:01:27.307Z,7.56
2022-10-09T22:03:56.534Z,7.55
2022-10-09T22:06:24.367Z,7.46
2022-10-09T22:08:51.967Z,7.28
2022-10-09T22:11:19.860Z,7.30
2022-10-09T22:13:47.369Z,7.33
2022-10-09T22:16:15.902Z,7.47
2022-10-09T22:18:43.892Z,7.26
2022-10-09T22:21:15.283Z,7.26
2022-10-09T22:23:43.101Z,7.50
2022-10-09T22:26:12.670Z,7.39
2022-10-09T22:28:40.146Z,7.03
2022-10-09T22:31:09.345Z,7.24
2022-10-09T22:33:37.223Z,7.20
2022-10-09T22:36:09.754Z,7.36
2022-10-09T22:38:39.300Z,7.34
2022-10-09T22:41:08.567Z,7.22
2022-10-09T22:43:36.332Z,7.18
2022-10-09T22:46:09.226Z,7.15
2022-10-09T22:48:36.938Z,7.30
2022-10-09T22:51:06.249Z,7.32
2022-10-09T22:53:34.661Z,7.33
2022-10-09T22:56:05.272Z,7.23
2022-10-09T22:58:32.831Z,7.10
2022-10-09T23:01:03.595Z,7.33
2022-10-09T23:03:31.007Z,7.28
2022-10-09T23:06:06.114Z,7.15
2022-10-09T23:08:33.545Z,7.32
2022-10-09T23:11:01.275Z,7.11
2022-10-09T23:13:30.055Z,7.18
2022-10-09T23:15:57.467Z,6.98
2022-10-09T23:18:24.857Z,6.94
2022-10-09T23:20:52.272Z,6.90
2022-10-09T23:23:19.669Z,6.97
2022-10-09T23:25:47.051Z,6.93
2022-10-09T23:28:14.485Z,6.63
2022-10-09T23:30:43.228Z,6.66
2022-10-09T23:33:10.604Z,6.56
2022-10-09T23:35:41.166Z,6.71
2022-10-09T23:38:09.021Z,6.95
2022-10-09T23:40:38.438Z,7.09
2022-10-09T23:43:05.830Z,7.64
2022-10-09T23:45:33.243Z,8.00
2022-10-09T23:48:01.962Z,8.67
2022-10-09T23:50:29.356Z,9.10
2022-10-09T23:52:56.798Z,9.28
2022-10-09T23:55:25.416Z,9.51
2022-10-09T23:57:52.954Z,9.63
